sensor_id;sensor_type;location;lat;lon;timestamp;temperature;humidity
13721;DHT22;6932;51.438;5.470;2023-03-14T00:00:15;18.50;82.50
13721;DHT22;6932;51.438;5.470;2023-03-14T00:02:41;18.50;82.30
13721;DHT22;6932;51.438;5.470;2023-03-14T00:05:07;18.50;82.20
13721;DHT22;6932;51.438;5.470;2023-03-14T00:07:38;18.50;82.20
13721;DHT22;6932;51.438;5.470;2023-03-14T00:10:11;18.50;82.00
13721;DHT22;6932;51.438;5.470;2023-03-14T00:12:39;18.40;81.80
13721;DHT22;6932;51.438;5.470;2023-03-14T00:15:07;18.40;81.80
13721;DHT22;6932;51.438;5.470;2023-03-14T00:17:34;18.40;81.60
13721;DHT22;6932;51.438;5.470;2023-03-14T00:20:01;18.40;81.50
13721;DHT22;6932;51.438;5.470;2023-03-14T00:22:34;18.40;81.40
13721;DHT22;6932;51.438;5.470;2023-03-14T00:25:01;18.40;81.30
13721;DHT22;6932;51.438;5.470;2023-03-14T00:27:30;18.40;81.30
13721;DHT22;6932;51.438;5.470;2023-03-14T00:29:55;18.40;81.10
13721;DHT22;6932;51.438;5.470;2023-03-14T00:32:21;18.30;80.60
13721;DHT22;6932;51.438;5.470;2023-03-14T00:34:47;18.30;80.40
13721;DHT22;6932;51.438;5.470;2023-03-14T00:37:13;18.40;80.20
13721;DHT22;6932;51.438;5.470;2023-03-14T00:39:39;18.30;79.90
13721;DHT22;6932;51.438;5.470;2023-03-14T00:42:05;18.30;79.70
13721;DHT22;6932;51.438;5.470;2023-03-14T00:44:31;18.30;79.30
13721;DHT22;6932;51.438;5.470;2023-03-14T00:46:57;18.30;79.00
13721;DHT22;6932;51.438;5.470;2023-03-14T00:49:23;18.30;78.80
13721;DHT22;6932;51.438;5.470;2023-03-14T00:51:49;18.20;78.70
13721;DHT22;6932;51.438;5.470;2023-03-14T00:54:17;18.20;78.60
13721;DHT22;6932;51.438;5.470;2023-03-14T00:56:43;18.20;78.50
13721;DHT22;6932;51.438;5.470;2023-03-14T00:59:09;18.20;78.50
13721;DHT22;6932;51.438;5.470;2023-03-14T01:01:35;18.20;78.40
13721;DHT22;6932;51.438;5.470;2023-03-14T01:04:02;18.10;78.40
13721;DHT22;6932;51.438;5.470;2023-03-14T01:06:29;18.10;78.40
13721;DHT22;6932;51.438;5.470;2023-03-14T01:08:57;18.10;78.30
13721;DHT22;6932;51.438;5.470;2023-03-14T01:11:29;18.10;78.40
13721;DHT22;6932;51.438;5.470;2023-03-14T01:13:57;18.10;78.40
13721;DHT22;6932;51.438;5.470;2023-03-14T01:16:25;18.10;78.30
13721;DHT22;6932;51.438;5.470;2023-03-14T01:18:52;18.10;78.30
13721;DHT22;6932;51.438;5.470;2023-03-14T01:21:21;18.00;78.20
13721;DHT22;6932;51.438;5.470;2023-03-14T01:23:49;18.00;78.10
13721;DHT22;6932;51.438;5.470;2023-03-14T01:26:18;18.00;78.20
13721;DHT22;6932;51.438;5.470;2023-03-14T01:31:58;18.00;78.20
13721;DHT22;6932;51.438;5.470;2023-03-14T01:38:04;18.00;78.30
13721;DHT22;6932;51.438;5.470;2023-03-14T01:40:30;18.00;78.20
13721;DHT22;6932;51.438;5.470;2023-03-14T01:42:58;17.90;78.20
13721;DHT22;6932;51.438;5.470;2023-03-14T01:48:42;17.90;78.40
13721;DHT22;6932;51.438;5.470;2023-03-14T01:51:28;17.90;78.30
13721;DHT22;6932;51.438;5.470;2023-03-14T01:54:22;17.90;78.40
13721;DHT22;6932;51.438;5.470;2023-03-14T01:57:33;17.90;78.50
13721;DHT22;6932;51.438;5.470;2023-03-14T02:00:08;17.90;78.50
13721;DHT22;6932;51.438;5.470;2023-03-14T02:02:47;17.90;78.60
13721;DHT22;6932;51.438;5.470;2023-03-14T02:05:18;17.90;78.70
13721;DHT22;6932;51.438;5.470;2023-03-14T02:07:56;17.90;78.80
13721;DHT22;6932;51.438;5.470;2023-03-14T02:10:28;17.90;79.00
13721;DHT22;6932;51.438;5.470;2023-03-14T02:13:00;17.90;79.00
13721;DHT22;6932;51.438;5.470;2023-03-14T02:15:28;17.90;79.10
13721;DHT22;6932;51.438;5.470;2023-03-14T02:17:55;17.90;79.20
13721;DHT22;6932;51.438;5.470;2023-03-14T02:20:46;17.80;79.20
13721;DHT22;6932;51.438;5.470;2023-03-14T02:23:31;17.80;79.30
13721;DHT22;6932;51.438;5.470;2023-03-14T02:26:14;17.90;79.40
13721;DHT22;6932;51.438;5.470;2023-03-14T02:28:44;17.90;80.10
13721;DHT22;6932;51.438;5.470;2023-03-14T02:31:11;17.80;79.50
13721;DHT22;6932;51.438;5.470;2023-03-14T02:33:37;17.90;79.70
13721;DHT22;6932;51.438;5.470;2023-03-14T02:36:11;17.80;79.80
13721;DHT22;6932;51.438;5.470;2023-03-14T02:38:41;17.80;80.00
13721;DHT22;6932;51.438;5.470;2023-03-14T02:41:12;17.80;80.10
13721;DHT22;6932;51.438;5.470;2023-03-14T02:43:38;17.80;80.20
13721;DHT22;6932;51.438;5.470;2023-03-14T02:46:05;17.80;80.40
13721;DHT22;6932;51.438;5.470;2023-03-14T02:48:53;17.80;80.50
13721;DHT22;6932;51.438;5.470;2023-03-14T02:51:21;17.70;80.70
13721;DHT22;6932;51.438;5.470;2023-03-14T02:53:49;17.70;80.70
13721;DHT22;6932;51.438;5.470;2023-03-14T02:56:14;17.70;80.80
13721;DHT22;6932;51.438;5.470;2023-03-14T02:58:40;17.70;80.90
13721;DHT22;6932;51.438;5.470;2023-03-14T03:01:06;17.70;81.10
13721;DHT22;6932;51.438;5.470;2023-03-14T03:03:32;17.70;81.80
13721;DHT22;6932;51.438;5.470;2023-03-14T03:05:58;17.70;81.20
13721;DHT22;6932;51.438;5.470;2023-03-14T03:08:26;17.70;81.30
13721;DHT22;6932;51.438;5.470;2023-03-14T03:10:53;17.60;81.40
13721;DHT22;6932;51.438;5.470;2023-03-14T03:13:19;17.60;81.30
13721;DHT22;6932;51.438;5.470;2023-03-14T03:15:45;17.60;81.40
13721;DHT22;6932;51.438;5.470;2023-03-14T03:18:12;17.60;81.50
13721;DHT22;6932;51.438;5.470;2023-03-14T03:20:38;17.60;81.50
13721;DHT22;6932;51.438;5.470;2023-03-14T03:23:04;17.60;81.60
13721;DHT22;6932;51.438;5.470;2023-03-14T03:25:30;17.60;81.60
13721;DHT22;6932;51.438;5.470;2023-03-14T03:27:56;17.60;81.60
13721;DHT22;6932;51.438;5.470;2023-03-14T03:30:22;17.60;81.60
13721;DHT22;6932;51.438;5.470;2023-03-14T03:32:48;17.60;81.60
13721;DHT22;6932;51.438;5.470;2023-03-14T03:35:15;17.50;81.50
13721;DHT22;6932;51.438;5.470;2023-03-14T03:37:41;17.50;81.50
13721;DHT22;6932;51.438;5.470;2023-03-14T03:40:07;17.50;81.50
13721;DHT22;6932;51.438;5.470;2023-03-14T03:42:35;17.50;81.50
13721;DHT22;6932;51.438;5.470;2023-03-14T03:45:03;17.50;81.50
13721;DHT22;6932;51.438;5.470;2023-03-14T03:47:31;17.50;81.50
13721;DHT22;6932;51.438;5.470;2023-03-14T03:49:56;17.50;81.50
13721;DHT22;6932;51.438;5.470;2023-03-14T03:52:22;17.50;81.50
13721;DHT22;6932;51.438;5.470;2023-03-14T03:54:48;17.50;81.50
13721;DHT22;6932;51.438;5.470;2023-03-14T03:57:14;17.50;81.40
13721;DHT22;6932;51.438;5.470;2023-03-14T03:59:40;17.50;81.30
13721;DHT22;6932;51.438;5.470;2023-03-14T04:02:06;17.50;81.30
13721;DHT22;6932;51.438;5.470;2023-03-14T04:04:33;17.40;81.30
13721;DHT22;6932;51.438;5.470;2023-03-14T04:06:59;17.40;81.30
13721;DHT22;6932;51.438;5.470;2023-03-14T04:09:24;17.40;81.30
13721;DHT22;6932;51.438;5.470;2023-03-14T04:11:50;17.40;81.30
13721;DHT22;6932;51.438;5.470;2023-03-14T04:14:16;17.40;81.40
13721;DHT22;6932;51.438;5.470;2023-03-14T04:16:42;17.30;81.50
13721;DHT22;6932;51.438;5.470;2023-03-14T04:19:08;17.30;81.60
13721;DHT22;6932;51.438;5.470;2023-03-14T04:21:33;17.30;81.90
13721;DHT22;6932;51.438;5.470;2023-03-14T04:23:59;17.30;82.00
13721;DHT22;6932;51.438;5.470;2023-03-14T04:26:25;17.30;82.30
13721;DHT22;6932;51.438;5.470;2023-03-14T04:28:50;17.30;82.50
13721;DHT22;6932;51.438;5.470;2023-03-14T04:31:20;17.30;82.70
13721;DHT22;6932;51.438;5.470;2023-03-14T04:33:47;17.30;82.90
13721;DHT22;6932;51.438;5.470;2023-03-14T04:36:13;17.30;83.00
13721;DHT22;6932;51.438;5.470;2023-03-14T04:38:40;17.30;83.20
13721;DHT22;6932;51.438;5.470;2023-03-14T04:41:06;17.20;83.40
13721;DHT22;6932;51.438;5.470;2023-03-14T04:43:32;17.20;83.50
13721;DHT22;6932;51.438;5.470;2023-03-14T04:45:59;17.20;83.70
13721;DHT22;6932;51.438;5.470;2023-03-14T04:48:25;17.20;83.90
13721;DHT22;6932;51.438;5.470;2023-03-14T04:50:52;17.20;84.80
13721;DHT22;6932;51.438;5.470;2023-03-14T04:53:19;17.10;84.30
13721;DHT22;6932;51.438;5.470;2023-03-14T04:55:52;17.10;84.70
13721;DHT22;6932;51.438;5.470;2023-03-14T04:58:20;17.10;85.10
13721;DHT22;6932;51.438;5.470;2023-03-14T05:00:47;17.10;85.20
13721;DHT22;6932;51.438;5.470;2023-03-14T05:03:15;17.00;85.40
13721;DHT22;6932;51.438;5.470;2023-03-14T05:05:42;17.00;85.70
13721;DHT22;6932;51.438;5.470;2023-03-14T05:08:08;17.10;86.00
13721;DHT22;6932;51.438;5.470;2023-03-14T05:10:34;17.00;86.10
13721;DHT22;6932;51.438;5.470;2023-03-14T05:13:00;17.00;86.30
13721;DHT22;6932;51.438;5.470;2023-03-14T05:15:25;16.90;86.50
13721;DHT22;6932;51.438;5.470;2023-03-14T05:17:51;16.90;86.70
13721;DHT22;6932;51.438;5.470;2023-03-14T05:20:18;16.90;86.80
13721;DHT22;6932;51.438;5.470;2023-03-14T05:22:44;16.90;86.90
13721;DHT22;6932;51.438;5.470;2023-03-14T05:25:09;16.90;87.20
13721;DHT22;6932;51.438;5.470;2023-03-14T05:27:35;16.90;87.30
13721;DHT22;6932;51.438;5.470;2023-03-14T05:30:03;16.90;87.40
13721;DHT22;6932;51.438;5.470;2023-03-14T05:32:30;16.80;87.50
13721;DHT22;6932;51.438;5.470;2023-03-14T05:34:56;16.90;87.70
13721;DHT22;6932;51.438;5.470;2023-03-14T05:37:25;16.80;87.80
13721;DHT22;6932;51.438;5.470;2023-03-14T05:39:51;16.90;88.00
13721;DHT22;6932;51.438;5.470;2023-03-14T05:42:17;16.90;88.10
13721;DHT22;6932;51.438;5.470;2023-03-14T05:52:06;16.80;88.50
13721;DHT22;6932;51.438;5.470;2023-03-14T05:54:31;16.80;88.50
13721;DHT22;6932;51.438;5.470;2023-03-14T05:56:57;16.80;88.80
13721;DHT22;6932;51.438;5.470;2023-03-14T05:59:23;16.80;89.00
13721;DHT22;6932;51.438;5.470;2023-03-14T06:01:49;16.80;89.20
13721;DHT22;6932;51.438;5.470;2023-03-14T06:04:14;16.80;89.30
13721;DHT22;6932;51.438;5.470;2023-03-14T06:06:40;16.80;89.40
13721;DHT22;6932;51.438;5.470;2023-03-14T06:09:06;16.80;89.60
13721;DHT22;6932;51.438;5.470;2023-03-14T06:11:32;16.80;89.70
13721;DHT22;6932;51.438;5.470;2023-03-14T06:13:57;16.80;89.90
13721;DHT22;6932;51.438;5.470;2023-03-14T06:16:23;16.80;90.00
13721;DHT22;6932;51.438;5.470;2023-03-14T06:18:49;16.80;90.00
13721;DHT22;6932;51.438;5.470;2023-03-14T06:21:15;16.80;90.10
13721;DHT22;6932;51.438;5.470;2023-03-14T06:23:41;16.80;90.10
13721;DHT22;6932;51.438;5.470;2023-03-14T06:26:07;16.80;90.20
13721;DHT22;6932;51.438;5.470;2023-03-14T06:28:32;16.80;90.20
13721;DHT22;6932;51.438;5.470;2023-03-14T06:30:59;16.80;90.20
13721;DHT22;6932;51.438;5.470;2023-03-14T06:33:25;16.80;90.30
13721;DHT22;6932;51.438;5.470;2023-03-14T06:35:51;16.80;90.30
13721;DHT22;6932;51.438;5.470;2023-03-14T06:38:17;16.80;90.30
13721;DHT22;6932;51.438;5.470;2023-03-14T06:40:43;16.80;90.30
13721;DHT22;6932;51.438;5.470;2023-03-14T06:43:08;16.80;90.30
13721;DHT22;6932;51.438;5.470;2023-03-14T06:45:34;16.80;90.40
13721;DHT22;6932;51.438;5.470;2023-03-14T06:48:00;16.80;90.40
13721;DHT22;6932;51.438;5.470;2023-03-14T06:50:26;16.80;90.40
13721;DHT22;6932;51.438;5.470;2023-03-14T06:52:51;16.80;90.50
13721;DHT22;6932;51.438;5.470;2023-03-14T06:55:17;16.80;90.50
13721;DHT22;6932;51.438;5.470;2023-03-14T06:57:43;16.80;90.50
13721;DHT22;6932;51.438;5.470;2023-03-14T07:00:10;16.90;90.60
13721;DHT22;6932;51.438;5.470;2023-03-14T07:02:37;16.90;90.60
13721;DHT22;6932;51.438;5.470;2023-03-14T07:05:04;16.90;90.70
13721;DHT22;6932;51.438;5.470;2023-03-14T07:07:30;16.90;90.70
13721;DHT22;6932;51.438;5.470;2023-03-14T07:09:56;17.00;90.70
13721;DHT22;6932;51.438;5.470;2023-03-14T07:12:22;17.00;90.70
13721;DHT22;6932;51.438;5.470;2023-03-14T07:14:47;17.00;90.60
13721;DHT22;6932;51.438;5.470;2023-03-14T07:17:13;17.00;90.60
13721;DHT22;6932;51.438;5.470;2023-03-14T07:19:39;17.10;90.70
13721;DHT22;6932;51.438;5.470;2023-03-14T07:22:05;17.10;90.70
13721;DHT22;6932;51.438;5.470;2023-03-14T07:24:31;17.10;90.70
13721;DHT22;6932;51.438;5.470;2023-03-14T07:26:57;17.10;90.70
13721;DHT22;6932;51.438;5.470;2023-03-14T07:29:22;17.10;90.70
13721;DHT22;6932;51.438;5.470;2023-03-14T07:31:48;17.10;90.70
13721;DHT22;6932;51.438;5.470;2023-03-14T07:34:51;17.10;90.70
13721;DHT22;6932;51.438;5.470;2023-03-14T07:37:17;17.10;90.80
13721;DHT22;6932;51.438;5.470;2023-03-14T07:39:43;17.10;90.80
13721;DHT22;6932;51.438;5.470;2023-03-14T07:42:08;17.10;90.80
13721;DHT22;6932;51.438;5.470;2023-03-14T07:44:34;17.10;90.80
13721;DHT22;6932;51.438;5.470;2023-03-14T07:47:00;17.10;90.40
13721;DHT22;6932;51.438;5.470;2023-03-14T07:49:26;17.00;90.00
13721;DHT22;6932;51.438;5.470;2023-03-14T07:51:58;17.00;89.30
13721;DHT22;6932;51.438;5.470;2023-03-14T07:54:24;16.90;88.60
13721;DHT22;6932;51.438;5.470;2023-03-14T07:56:51;16.80;88.20
13721;DHT22;6932;51.438;5.470;2023-03-14T07:59:20;16.70;87.90
13721;DHT22;6932;51.438;5.470;2023-03-14T08:01:46;16.60;87.70
13721;DHT22;6932;51.438;5.470;2023-03-14T08:04:11;16.50;87.60
13721;DHT22;6932;51.438;5.470;2023-03-14T08:06:37;16.40;87.70
13721;DHT22;6932;51.438;5.470;2023-03-14T08:09:04;16.30;87.70
13721;DHT22;6932;51.438;5.470;2023-03-14T08:11:30;16.20;87.70
13721;DHT22;6932;51.438;5.470;2023-03-14T08:13:56;16.20;87.80
13721;DHT22;6932;51.438;5.470;2023-03-14T08:16:21;16.10;87.80
13721;DHT22;6932;51.438;5.470;2023-03-14T08:18:47;16.00;87.80
13721;DHT22;6932;51.438;5.470;2023-03-14T08:21:14;16.00;87.90
13721;DHT22;6932;51.438;5.470;2023-03-14T08:23:40;15.90;88.00
13721;DHT22;6932;51.438;5.470;2023-03-14T08:26:06;15.90;88.10
13721;DHT22;6932;51.438;5.470;2023-03-14T08:28:32;15.80;88.20
13721;DHT22;6932;51.438;5.470;2023-03-14T08:30:59;15.80;88.20
13721;DHT22;6932;51.438;5.470;2023-03-14T08:33:27;15.80;88.40
13721;DHT22;6932;51.438;5.470;2023-03-14T08:35:55;15.70;88.40
13721;DHT22;6932;51.438;5.470;2023-03-14T08:38:22;15.70;88.30
13721;DHT22;6932;51.438;5.470;2023-03-14T08:40:48;15.70;88.30
13721;DHT22;6932;51.438;5.470;2023-03-14T08:43:15;15.70;88.30
13721;DHT22;6932;51.438;5.470;2023-03-14T08:45:41;15.70;88.40
13721;DHT22;6932;51.438;5.470;2023-03-14T08:48:06;15.70;88.40
13721;DHT22;6932;51.438;5.470;2023-03-14T08:50:33;15.60;88.20
13721;DHT22;6932;51.438;5.470;2023-03-14T08:52:58;15.70;88.20
13721;DHT22;6932;51.438;5.470;2023-03-14T08:55:26;15.60;88.00
13721;DHT22;6932;51.438;5.470;2023-03-14T08:57:54;15.60;88.00
13721;DHT22;6932;51.438;5.470;2023-03-14T09:00:20;15.60;88.00
13721;DHT22;6932;51.438;5.470;2023-03-14T09:02:46;15.60;87.90
13721;DHT22;6932;51.438;5.470;2023-03-14T09:05:12;15.60;87.80
13721;DHT22;6932;51.438;5.470;2023-03-14T09:23:08;15.50;88.00
13721;DHT22;6932;51.438;5.470;2023-03-14T09:25:34;15.50;88.10
13721;DHT22;6932;51.438;5.470;2023-03-14T09:28:00;15.50;88.20
13721;DHT22;6932;51.438;5.470;2023-03-14T09:30:26;15.40;88.40
13721;DHT22;6932;51.438;5.470;2023-03-14T09:32:51;15.40;88.70
13721;DHT22;6932;51.438;5.470;2023-03-14T09:35:17;15.40;89.00
13721;DHT22;6932;51.438;5.470;2023-03-14T09:37:43;15.50;89.10
13721;DHT22;6932;51.438;5.470;2023-03-14T09:40:14;15.50;89.00
13721;DHT22;6932;51.438;5.470;2023-03-14T09:42:41;15.50;88.90
13721;DHT22;6932;51.438;5.470;2023-03-14T09:45:15;15.60;88.80
13721;DHT22;6932;51.438;5.470;2023-03-14T09:47:47;15.60;88.70
13721;DHT22;6932;51.438;5.470;2023-03-14T09:50:16;15.60;88.30
13721;DHT22;6932;51.438;5.470;2023-03-14T09:53:12;15.60;88.00
13721;DHT22;6932;51.438;5.470;2023-03-14T09:55:43;15.60;87.90
13721;DHT22;6932;51.438;5.470;2023-03-14T09:58:17;15.70;87.40
13721;DHT22;6932;51.438;5.470;2023-03-14T10:00:45;15.60;86.70
13721;DHT22;6932;51.438;5.470;2023-03-14T10:05:39;15.50;85.20
13721;DHT22;6932;51.438;5.470;2023-03-14T10:08:12;15.50;84.70
13721;DHT22;6932;51.438;5.470;2023-03-14T10:10:39;15.40;84.10
13721;DHT22;6932;51.438;5.470;2023-03-14T11:00:25;14.10;84.50
13721;DHT22;6932;51.438;5.470;2023-03-14T11:03:07;14.20;84.00
13721;DHT22;6932;51.438;5.470;2023-03-14T11:05:59;14.30;83.70
13721;DHT22;6932;51.438;5.470;2023-03-14T11:09:00;14.30;83.40
13721;DHT22;6932;51.438;5.470;2023-03-14T11:11:33;14.40;83.30
13721;DHT22;6932;51.438;5.470;2023-03-14T11:14:05;14.50;83.00
13721;DHT22;6932;51.438;5.470;2023-03-14T11:16:46;14.60;82.80
13721;DHT22;6932;51.438;5.470;2023-03-14T11:19:40;14.60;82.50
13721;DHT22;6932;51.438;5.470;2023-03-14T11:22:35;14.70;82.50
13721;DHT22;6932;51.438;5.470;2023-03-14T11:28:00;14.70;82.40
13721;DHT22;6932;51.438;5.470;2023-03-14T11:33:25;14.80;81.60
13721;DHT22;6932;51.438;5.470;2023-03-14T11:36:11;14.80;81.30
13721;DHT22;6932;51.438;5.470;2023-03-14T11:38:50;14.80;81.00
13721;DHT22;6932;51.438;5.470;2023-03-14T11:41:45;14.90;80.90
13721;DHT22;6932;51.438;5.470;2023-03-14T11:52:22;14.90;81.20
13721;DHT22;6932;51.438;5.470;2023-03-14T11:55:17;14.90;80.90
13721;DHT22;6932;51.438;5.470;2023-03-14T11:57:51;14.80;80.30
13721;DHT22;6932;51.438;5.470;2023-03-14T12:00:22;14.80;79.80
13721;DHT22;6932;51.438;5.470;2023-03-14T12:03:19;14.70;79.70
13721;DHT22;6932;51.438;5.470;2023-03-14T12:06:17;14.60;80.00
13721;DHT22;6932;51.438;5.470;2023-03-14T12:08:55;14.50;79.90
13721;DHT22;6932;51.438;5.470;2023-03-14T12:14:26;14.30;80.80
13721;DHT22;6932;51.438;5.470;2023-03-14T12:17:06;14.30;81.20
13721;DHT22;6932;51.438;5.470;2023-03-14T12:19:43;14.30;81.70
13721;DHT22;6932;51.438;5.470;2023-03-14T12:22:43;14.20;82.10
13721;DHT22;6932;51.438;5.470;2023-03-14T12:25:25;14.20;82.60
13721;DHT22;6932;51.438;5.470;2023-03-14T12:30:39;14.30;82.70
13721;DHT22;6932;51.438;5.470;2023-03-14T12:36:00;14.40;82.70
13721;DHT22;6932;51.438;5.470;2023-03-14T12:38:32;14.40;82.30
13721;DHT22;6932;51.438;5.470;2023-03-14T12:41:29;14.50;81.80
13721;DHT22;6932;51.438;5.470;2023-03-14T12:49:40;14.50;80.30
13721;DHT22;6932;51.438;5.470;2023-03-14T12:52:14;14.60;80.00
13721;DHT22;6932;51.438;5.470;2023-03-14T12:55:12;14.60;80.10
13721;DHT22;6932;51.438;5.470;2023-03-14T13:01:00;14.80;80.00
13721;DHT22;6932;51.438;5.470;2023-03-14T13:03:45;14.80;79.10
13721;DHT22;6932;51.438;5.470;2023-03-14T13:09:53;15.00;78.00
13721;DHT22;6932;51.438;5.470;2023-03-14T13:12:29;15.10;76.80
13721;DHT22;6932;51.438;5.470;2023-03-14T13:15:15;15.10;76.30
13721;DHT22;6932;51.438;5.470;2023-03-14T13:17:49;15.10;76.60
13721;DHT22;6932;51.438;5.470;2023-03-14T13:20:31;15.20;76.10
13721;DHT22;6932;51.438;5.470;2023-03-14T13:22:59;15.20;75.80
13721;DHT22;6932;51.438;5.470;2023-03-14T13:25:32;15.30;76.60
13721;DHT22;6932;51.438;5.470;2023-03-14T13:28:01;15.30;74.30
13721;DHT22;6932;51.438;5.470;2023-03-14T13:30:35;15.40;73.30
13721;DHT22;6932;51.438;5.470;2023-03-14T13:33:05;15.40;71.90
13721;DHT22;6932;51.438;5.470;2023-03-14T13:35:40;15.40;70.70
13721;DHT22;6932;51.438;5.470;2023-03-14T13:38:34;15.50;69.20
13721;DHT22;6932;51.438;5.470;2023-03-14T13:41:05;15.50;69.30
13721;DHT22;6932;51.438;5.470;2023-03-14T13:43:46;15.60;67.20
13721;DHT22;6932;51.438;5.470;2023-03-14T13:46:16;15.60;66.20
13721;DHT22;6932;51.438;5.470;2023-03-14T13:49:01;15.70;65.70
13721;DHT22;6932;51.438;5.470;2023-03-14T13:51:29;15.70;65.30
13721;DHT22;6932;51.438;5.470;2023-03-14T13:54:00;15.70;64.70
13721;DHT22;6932;51.438;5.470;2023-03-14T13:56:31;15.70;64.20
13721;DHT22;6932;51.438;5.470;2023-03-14T13:58:58;15.70;64.10
13721;DHT22;6932;51.438;5.470;2023-03-14T14:01:34;15.80;63.80
13721;DHT22;6932;51.438;5.470;2023-03-14T14:18:56;15.80;61.80
13721;DHT22;6932;51.438;5.470;2023-03-14T14:21:24;15.80;61.80
13721;DHT22;6932;51.438;5.470;2023-03-14T14:23:50;15.80;62.50
13721;DHT22;6932;51.438;5.470;2023-03-14T14:26:18;15.80;61.80
13721;DHT22;6932;51.438;5.470;2023-03-14T14:28:45;15.80;61.50
13721;DHT22;6932;51.438;5.470;2023-03-14T14:36:32;15.80;61.30
13721;DHT22;6932;51.438;5.470;2023-03-14T14:39:19;15.80;60.70
13721;DHT22;6932;51.438;5.470;2023-03-14T14:41:49;15.80;60.30
13721;DHT22;6932;51.438;5.470;2023-03-14T14:44:31;15.80;60.20
13721;DHT22;6932;51.438;5.470;2023-03-14T14:47:01;15.80;60.70
13721;DHT22;6932;51.438;5.470;2023-03-14T14:49:30;15.80;60.30
13721;DHT22;6932;51.438;5.470;2023-03-14T14:52:03;15.80;59.80
13721;DHT22;6932;51.438;5.470;2023-03-14T14:54:54;15.70;59.70
13721;DHT22;6932;51.438;5.470;2023-03-14T14:57:31;15.70;59.10
13721;DHT22;6932;51.438;5.470;2023-03-14T15:00:06;15.70;59.10
13721;DHT22;6932;51.438;5.470;2023-03-14T15:02:44;15.60;59.00
13721;DHT22;6932;51.438;5.470;2023-03-14T15:05:22;15.60;59.00
13721;DHT22;6932;51.438;5.470;2023-03-14T15:07:50;15.60;58.80
13721;DHT22;6932;51.438;5.470;2023-03-14T15:10:19;15.60;58.30
13721;DHT22;6932;51.438;5.470;2023-03-14T15:12:46;15.60;58.00
13721;DHT22;6932;51.438;5.470;2023-03-14T15:15:13;15.60;58.20
13721;DHT22;6932;51.438;5.470;2023-03-14T15:17:40;15.50;58.10
13721;DHT22;6932;51.438;5.470;2023-03-14T15:20:10;15.50;58.00
13721;DHT22;6932;51.438;5.470;2023-03-14T15:22:41;15.50;57.80
13721;DHT22;6932;51.438;5.470;2023-03-14T15:25:08;15.50;57.60
13721;DHT22;6932;51.438;5.470;2023-03-14T15:27:35;15.40;57.60
13721;DHT22;6932;51.438;5.470;2023-03-14T15:30:05;15.40;57.70
13721;DHT22;6932;51.438;5.470;2023-03-14T15:32:31;15.30;57.90
13721;DHT22;6932;51.438;5.470;2023-03-14T15:34:57;15.30;58.10
13721;DHT22;6932;51.438;5.470;2023-03-14T15:37:23;15.30;58.40
13721;DHT22;6932;51.438;5.470;2023-03-14T15:39:50;15.20;58.40
13721;DHT22;6932;51.438;5.470;2023-03-14T15:42:16;15.20;58.50
13721;DHT22;6932;51.438;5.470;2023-03-14T15:44:42;15.20;58.40
13721;DHT22;6932;51.438;5.470;2023-03-14T15:47:10;15.20;59.20
13721;DHT22;6932;51.438;5.470;2023-03-14T15:49:36;15.10;58.20
13721;DHT22;6932;51.438;5.470;2023-03-14T15:52:02;15.10;57.90
13721;DHT22;6932;51.438;5.470;2023-03-14T15:54:27;15.10;57.90
13721;DHT22;6932;51.438;5.470;2023-03-14T15:56:57;15.10;57.60
13721;DHT22;6932;51.438;5.470;2023-03-14T15:59:23;15.00;57.60
13721;DHT22;6932;51.438;5.470;2023-03-14T16:16:43;14.80;58.70
13721;DHT22;6932;51.438;5.470;2023-03-14T16:19:08;14.80;58.90
13721;DHT22;6932;51.438;5.470;2023-03-14T16:21:34;14.70;59.00
13721;DHT22;6932;51.438;5.470;2023-03-14T16:24:01;14.70;59.00
13721;DHT22;6932;51.438;5.470;2023-03-14T16:26:31;14.70;59.10
13721;DHT22;6932;51.438;5.470;2023-03-14T16:29:01;14.60;58.70
13721;DHT22;6932;51.438;5.470;2023-03-14T16:31:26;14.60;58.30
13721;DHT22;6932;51.438;5.470;2023-03-14T16:33:52;14.60;58.20
13721;DHT22;6932;51.438;5.470;2023-03-14T16:36:18;14.60;57.80
13721;DHT22;6932;51.438;5.470;2023-03-14T16:38:44;14.60;57.50
13721;DHT22;6932;51.438;5.470;2023-03-14T16:41:20;14.60;57.70
13721;DHT22;6932;51.438;5.470;2023-03-14T16:43:47;14.50;57.30
13721;DHT22;6932;51.438;5.470;2023-03-14T16:46:17;14.50;57.60
13721;DHT22;6932;51.438;5.470;2023-03-14T16:48:44;14.50;57.50
13721;DHT22;6932;51.438;5.470;2023-03-14T16:51:10;14.60;57.70
13721;DHT22;6932;51.438;5.470;2023-03-14T16:53:36;14.50;57.40
13721;DHT22;6932;51.438;5.470;2023-03-14T16:56:02;14.50;57.60
13721;DHT22;6932;51.438;5.470;2023-03-14T16:58:28;14.50;57.60
13721;DHT22;6932;51.438;5.470;2023-03-14T17:00:57;14.50;57.70
13721;DHT22;6932;51.438;5.470;2023-03-14T17:03:23;14.40;57.50
13721;DHT22;6932;51.438;5.470;2023-03-14T17:05:52;14.40;57.40
13721;DHT22;6932;51.438;5.470;2023-03-14T17:08:19;14.40;57.30
13721;DHT22;6932;51.438;5.470;2023-03-14T17:10:46;14.40;57.20
13721;DHT22;6932;51.438;5.470;2023-03-14T17:13:12;14.40;57.40
13721;DHT22;6932;51.438;5.470;2023-03-14T17:15:38;14.30;57.20
13721;DHT22;6932;51.438;5.470;2023-03-14T17:18:09;14.30;57.40
13721;DHT22;6932;51.438;5.470;2023-03-14T17:20:35;14.30;57.40
13721;DHT22;6932;51.438;5.470;2023-03-14T17:23:01;14.30;57.80
13721;DHT22;6932;51.438;5.470;2023-03-14T17:25:26;14.30;58.00
13721;DHT22;6932;51.438;5.470;2023-03-14T17:27:52;14.20;58.10
13721;DHT22;6932;51.438;5.470;2023-03-14T17:30:18;14.20;59.00
13721;DHT22;6932;51.438;5.470;2023-03-14T17:32:44;14.20;58.40
13721;DHT22;6932;51.438;5.470;2023-03-14T17:35:09;14.20;58.20
13721;DHT22;6932;51.438;5.470;2023-03-14T17:37:35;14.20;58.10
13721;DHT22;6932;51.438;5.470;2023-03-14T17:40:01;14.10;58.30
13721;DHT22;6932;51.438;5.470;2023-03-14T17:42:28;14.10;58.30
13721;DHT22;6932;51.438;5.470;2023-03-14T17:44:55;14.10;58.40
13721;DHT22;6932;51.438;5.470;2023-03-14T17:47:21;14.10;58.40
13721;DHT22;6932;51.438;5.470;2023-03-14T17:49:47;14.10;58.50
13721;DHT22;6932;51.438;5.470;2023-03-14T17:52:12;14.10;58.50
13721;DHT22;6932;51.438;5.470;2023-03-14T17:54:38;14.10;58.70
13721;DHT22;6932;51.438;5.470;2023-03-14T17:57:04;14.10;58.60
13721;DHT22;6932;51.438;5.470;2023-03-14T17:59:30;14.10;58.80
13721;DHT22;6932;51.438;5.470;2023-03-14T18:01:56;14.00;58.80
13721;DHT22;6932;51.438;5.470;2023-03-14T18:04:22;14.00;58.80
13721;DHT22;6932;51.438;5.470;2023-03-14T18:06:48;14.00;59.00
13721;DHT22;6932;51.438;5.470;2023-03-14T18:09:13;14.00;59.10
13721;DHT22;6932;51.438;5.470;2023-03-14T18:11:39;14.00;59.20
13721;DHT22;6932;51.438;5.470;2023-03-14T18:14:05;14.00;59.00
13721;DHT22;6932;51.438;5.470;2023-03-14T18:16:35;13.90;58.30
13721;DHT22;6932;51.438;5.470;2023-03-14T18:19:02;13.80;58.40
13721;DHT22;6932;51.438;5.470;2023-03-14T18:21:28;13.60;58.50
13721;DHT22;6932;51.438;5.470;2023-03-14T18:23:54;13.40;58.90
13721;DHT22;6932;51.438;5.470;2023-03-14T18:26:20;13.20;59.30
13721;DHT22;6932;51.438;5.470;2023-03-14T18:28:48;13.10;59.50
13721;DHT22;6932;51.438;5.470;2023-03-14T18:31:14;12.90;59.80